Time;durP1;ratioP1;P1;durP2;ratioP2;P2;SDS_P1;SDS_P2;PMS_P1;PMS_P2;Temp;Humidity;BMP_temperature;BMP_pressure;BME280_temperature;BME280_humidity;BME280_pressure;Samples;Min_cycle;Max_cycle;Signal;HPM_P1;HPM_P2
2024/01/11 00:00:31;;;;;;;9.60;6.50;;;;;;;11.87;46.06;98575.07;105872;1256;66059;-41
2024/01/11 00:02:58;;;;;;;8.80;6.70;;;;;;;11.87;46.14;98569.23;105923;1253;72447;-42
2024/01/11 00:05:24;;;;;;;8.50;6.60;;;;;;;11.87;46.13;98571.91;105923;1256;61100;-42
2024/01/11 00:07:51;;;;;;;8.40;6.70;;;;;;;11.86;46.23;98562.53;105852;1253;61238;-40
2024/01/11 00:10:18;;;;;;;8.30;6.20;;;;;;;11.87;46.20;98560.48;105703;1256;74558;-41
2024/01/11 00:12:45;;;;;;;9.50;6.80;;;;;;;11.86;46.08;98548.51;105693;1256;66075;-41
2024/01/11 00:15:12;;;;;;;8.20;6.60;;;;;;;11.86;46.20;98539.92;105702;1253;72391;-41
2024/01/11 00:17:38;;;;;;;8.90;6.70;;;;;;;11.86;46.19;98537.77;105884;1256;61324;-40
2024/01/11 00:20:06;;;;;;;8.30;6.70;;;;;;;11.86;46.24;98533.54;105893;1253;61212;-42
2024/01/11 00:22:33;;;;;;;7.30;6.40;;;;;;;11.86;46.28;98530.26;105938;1256;74609;-41
2024/01/11 00:25:00;;;;;;;8.00;6.10;;;;;;;11.86;46.13;98526.02;105760;1256;65055;-42
2024/01/11 00:27:27;;;;;;;9.60;6.50;;;;;;;11.86;46.30;98524.79;105500;1253;72625;-42
2024/01/11 00:29:53;;;;;;;7.70;6.40;;;;;;;11.85;46.28;98523.44;105541;1256;61225;-42
2024/01/11 00:32:21;;;;;;;10.30;6.90;;;;;;;11.85;46.10;98520.27;105588;1254;61330;-42
2024/01/11 00:34:48;;;;;;;6.80;6.00;;;;;;;11.85;46.18;98523.65;105477;1254;74575;-42
2024/01/11 00:37:14;;;;;;;7.10;6.30;;;;;;;11.85;46.14;98525.81;105662;1256;66179;-41
2024/01/11 00:39:41;;;;;;;7.80;6.40;;;;;;;11.85;46.21;98522.64;105606;1253;72566;-41
2024/01/11 00:42:07;;;;;;;8.00;6.50;;;;;;;11.85;46.15;98519.58;105608;1256;61248;-42
2024/01/11 00:44:34;;;;;;;8.40;6.60;;;;;;;11.85;46.19;98518.71;105701;1253;61253;-41
2024/01/11 00:47:01;;;;;;;8.70;6.30;;;;;;;11.84;46.14;98520.99;105856;1256;74565;-41
2024/01/11 00:49:28;;;;;;;8.80;6.50;;;;;;;11.84;46.10;98521.21;105704;1256;66239;-41
2024/01/11 00:51:55;;;;;;;8.10;6.50;;;;;;;11.84;46.28;98520.63;105504;1254;71582;-41
2024/01/11 00:54:21;;;;;;;7.90;7.10;;;;;;;11.84;46.13;98515.09;105529;1256;61231;-41
2024/01/11 00:56:48;;;;;;;8.00;6.70;;;;;;;11.84;46.07;98513.85;105557;1253;61333;-41
2024/01/11 00:59:15;;;;;;;7.90;6.40;;;;;;;11.84;46.18;98516.06;105801;1256;74535;-41
2024/01/11 01:01:47;;;;;;;9.00;6.60;;;;;;;11.84;46.10;98507.47;105819;1256;66568;-42
2024/01/11 01:04:14;;;;;;;9.60;6.80;;;;;;;11.84;46.12;98502.64;105911;1253;72603;-41
2024/01/11 01:06:42;;;;;;;8.70;6.50;;;;;;;11.84;46.12;98500.11;106308;1256;61232;-40
2024/01/11 01:09:09;;;;;;;9.30;6.80;;;;;;;11.84;45.94;98503.77;105742;1254;61256;-41
2024/01/11 01:11:36;;;;;;;8.40;6.50;;;;;;;11.84;46.01;98501.04;105587;1253;73176;-40
2024/01/11 01:14:02;;;;;;;8.90;6.60;;;;;;;11.84;46.11;98498.66;105898;1256;66200;-42
2024/01/11 01:16:29;;;;;;;8.20;6.50;;;;;;;11.84;46.08;98493.66;105751;1254;165361;-41
2024/01/11 01:18:56;;;;;;;7.50;6.50;;;;;;;11.84;46.18;98492.81;105861;1256;61238;-41
2024/01/11 01:21:23;;;;;;;8.50;6.70;;;;;;;11.84;46.06;98491.15;105855;1253;61279;-42
2024/01/11 01:23:49;;;;;;;8.80;6.40;;;;;;;11.83;46.06;98486.64;105875;1255;74609;-40
2024/01/11 01:26:16;;;;;;;9.90;6.40;;;;;;;11.84;46.04;98477.52;105762;1256;65570;-39
2024/01/11 01:28:43;;;;;;;7.50;5.90;;;;;;;11.84;46.12;98474.88;105535;1252;72042;-40
2024/01/11 01:31:09;;;;;;;9.80;6.30;;;;;;;11.83;46.04;98474.45;105671;1267;61225;-41
2024/01/11 01:33:36;;;;;;;9.20;6.50;;;;;;;11.83;46.08;98467.00;105857;1254;62840;-41
2024/01/11 01:36:04;;;;;;;8.00;6.80;;;;;;;11.83;46.21;98468.46;105713;1254;74457;-40
2024/01/11 01:38:30;;;;;;;9.00;6.70;;;;;;;11.83;46.28;98463.02;105743;1256;65734;-41
2024/01/11 01:40:57;;;;;;;7.60;6.40;;;;;;;11.83;46.07;98458.89;105560;1254;72916;-40
2024/01/11 01:43:24;;;;;;;8.60;6.10;;;;;;;11.83;46.05;98453.41;105793;1256;61190;-41
2024/01/11 01:45:50;;;;;;;8.40;6.70;;;;;;;11.82;46.14;98447.64;105852;1254;61333;-40
2024/01/11 01:48:17;;;;;;;9.60;7.10;;;;;;;11.83;46.11;98438.83;105686;1254;74479;-40
2024/01/11 01:50:50;;;;;;;8.50;6.50;;;;;;;11.83;46.12;98433.08;105941;1256;66006;-40
2024/01/11 01:53:20;;;;;;;7.30;6.60;;;;;;;11.82;46.18;98438.67;105902;1253;72324;-40
2024/01/11 01:55:48;;;;;;;9.60;6.60;;;;;;;11.82;46.15;98432.67;105566;1259;61949;-40
2024/01/11 01:58:15;;;;;;;9.10;6.40;;;;;;;11.82;46.06;98431.69;105319;1254;61221;-41
2024/01/11 02:00:42;;;;;;;9.40;6.70;;;;;;;11.82;46.01;98427.14;105510;1256;75054;-41
2024/01/11 02:03:09;;;;;;;7.70;6.80;;;;;;;11.82;46.10;98422.30;105412;1260;65889;-40
2024/01/11 02:05:36;;;;;;;8.60;6.90;;;;;;;11.82;46.14;98417.58;105521;1253;72497;-41
2024/01/11 02:08:04;;;;;;;8.60;6.80;;;;;;;11.82;46.07;98416.78;105616;1259;61233;-41
2024/01/11 02:10:31;;;;;;;8.10;6.60;;;;;;;11.82;46.12;98412.97;105569;1259;61251;-40
2024/01/11 02:12:57;;;;;;;7.40;6.30;;;;;;;11.82;46.04;98410.11;105691;1258;73441;-40
2024/01/11 02:15:24;;;;;;;9.20;6.80;;;;;;;11.82;46.05;98406.36;105741;1259;65587;-40
2024/01/11 02:17:51;;;;;;;8.30;6.30;;;;;;;11.82;46.11;98403.21;105806;1259;72437;-41
2024/01/11 02:20:18;;;;;;;9.40;6.90;;;;;;;11.82;46.16;98400.52;105681;1259;61248;-40
2024/01/11 02:22:48;;;;;;;9.60;6.90;;;;;;;11.82;46.05;98398.90;105584;1254;63773;-40
2024/01/11 02:25:14;;;;;;;9.60;7.00;;;;;;;11.81;46.11;98401.11;105670;1254;74504;-41
2024/01/11 02:27:48;;;;;;;8.80;7.10;;;;;;;11.82;46.10;98396.98;105767;1256;67394;-41
2024/01/11 02:30:15;;;;;;;9.40;6.50;;;;;;;11.82;46.15;98396.44;105771;1253;72523;-41
2024/01/11 02:32:48;;;;;;;7.40;6.60;;;;;;;11.81;46.03;98393.96;105830;1257;61347;-41
2024/01/11 02:35:15;;;;;;;9.40;6.80;;;;;;;11.81;46.12;98392.52;105660;1253;61222;-41
2024/01/11 02:37:42;;;;;;;8.30;7.20;;;;;;;11.81;46.15;98386.14;105597;1257;74525;-41
2024/01/11 02:40:10;;;;;;;8.70;7.40;;;;;;;11.81;46.11;98383.88;105517;1255;66147;-41
2024/01/11 02:42:37;;;;;;;8.60;6.50;;;;;;;11.81;46.17;98386.67;105675;1259;71167;-41
2024/01/11 02:45:04;;;;;;;9.50;7.00;;;;;;;11.80;46.05;98380.73;105762;1256;61264;-41
2024/01/11 02:47:34;;;;;;;10.10;7.20;;;;;;;11.80;46.11;98374.33;105752;1253;61231;-40
2024/01/11 02:50:01;;;;;;;8.20;7.10;;;;;;;11.81;46.07;98365.48;105609;1257;74615;-40
2024/01/11 02:52:28;;;;;;;9.60;7.10;;;;;;;11.80;46.20;98363.91;105687;1259;65275;-41
2024/01/11 02:54:55;;;;;;;10.80;7.10;;;;;;;11.80;46.01;98361.83;105565;1255;72695;-41
2024/01/11 02:57:21;;;;;;;7.40;6.50;;;;;;;11.80;46.10;98356.21;105754;1259;61223;-41
2024/01/11 02:59:49;;;;;;;8.50;6.30;;;;;;;11.80;46.07;98352.23;105740;1266;61352;-40
2024/01/11 03:02:15;;;;;;;7.50;6.40;;;;;;;11.80;46.01;98355.45;105690;1257;74447;-41
2024/01/11 03:04:42;;;;;;;7.70;6.40;;;;;;;11.80;46.03;98363.98;105699;1258;65072;-41
2024/01/11 03:07:09;;;;;;;9.30;7.10;;;;;;;11.80;46.09;98368.02;105680;1256;72423;-41
2024/01/11 03:09:36;;;;;;;8.20;6.80;;;;;;;11.80;46.05;98364.58;105735;1256;61221;-41
2024/01/11 03:12:03;;;;;;;9.30;7.20;;;;;;;11.79;46.10;98358.95;105908;1256;61243;-40
2024/01/11 03:14:30;;;;;;;8.40;6.60;;;;;;;11.79;46.14;98353.36;105844;1256;74450;-41
2024/01/11 03:16:56;;;;;;;10.10;6.70;;;;;;;11.79;46.06;98345.91;105952;1254;65984;-41
2024/01/11 03:19:23;;;;;;;8.50;6.90;;;;;;;11.80;46.10;98345.41;105728;1257;72495;-40
2024/01/11 03:21:50;;;;;;;9.90;6.80;;;;;;;11.79;46.18;98350.52;105451;1256;61302;-41
2024/01/11 03:24:16;;;;;;;10.10;7.20;;;;;;;11.79;46.07;98348.48;105475;1260;61376;-40
2024/01/11 03:26:43;;;;;;;8.80;7.50;;;;;;;11.79;46.11;98352.09;105960;1256;74372;-41
2024/01/11 03:29:09;;;;;;;8.10;7.00;;;;;;;11.79;45.99;98351.49;105529;1256;65897;-41
2024/01/11 03:31:37;;;;;;;11.90;7.50;;;;;;;11.79;46.09;98350.30;106356;1256;61372;-41
2024/01/11 03:34:04;;;;;;;10.10;7.10;;;;;;;11.78;46.09;98343.02;105753;1258;61340;-40
2024/01/11 03:36:31;;;;;;;8.40;6.90;;;;;;;11.79;45.97;98338.45;105571;1254;61204;-41
2024/01/11 03:38:58;;;;;;;12.10;7.50;;;;;;;11.78;46.11;98327.23;105864;1258;74446;-42
2024/01/11 03:41:24;;;;;;;8.70;6.50;;;;;;;11.79;46.07;98317.95;105901;1256;65134;-42
2024/01/11 03:43:51;;;;;;;8.60;6.70;;;;;;;11.78;46.07;98314.58;105934;1257;73203;-40
2024/01/11 03:46:18;;;;;;;11.30;7.30;;;;;;;11.78;45.94;98309.79;105738;1257;61336;-41
2024/01/11 03:48:44;;;;;;;10.00;7.40;;;;;;;11.78;46.00;98312.10;105811;1254;61346;-40
2024/01/11 03:51:11;;;;;;;10.30;7.60;;;;;;;11.78;46.07;98301.20;105874;1263;74375;-40
2024/01/11 03:53:38;;;;;;;9.20;7.20;;;;;;;11.78;45.96;98294.55;105720;1257;64793;-41
2024/01/11 03:56:05;;;;;;;9.30;7.60;;;;;;;11.78;45.99;98287.64;105829;1256;72405;-40
2024/01/11 03:58:32;;;;;;;9.10;7.60;;;;;;;11.78;46.04;98275.60;105823;1256;61224;-42
2024/01/11 04:01:00;;;;;;;8.40;7.00;;;;;;;11.78;46.22;98263.20;105560;1256;61259;-40
2024/01/11 04:03:26;;;;;;;8.10;6.90;;;;;;;11.77;46.11;98252.86;105666;1254;74411;-41
2024/01/11 04:05:53;;;;;;;9.50;6.80;;;;;;;11.77;46.09;98246.54;105642;1257;64722;-40
2024/01/11 04:08:20;;;;;;;9.20;7.20;;;;;;;11.77;45.98;98244.55;105916;1256;72664;-41
2024/01/11 04:10:47;;;;;;;8.90;6.50;;;;;;;11.77;46.08;98241.72;105885;1259;63780;-40
2024/01/11 04:13:13;;;;;;;8.40;7.10;;;;;;;11.78;46.20;98227.59;105868;1257;61285;-40
2024/01/11 04:15:40;;;;;;;10.90;7.00;;;;;;;11.76;46.21;98211.77;105838;1256;61240;-41
2024/01/11 04:18:06;;;;;;;10.50;7.30;;;;;;;11.77;46.09;98206.82;105888;1257;61277;-40
2024/01/11 04:20:34;;;;;;;9.00;7.20;;;;;;;11.77;46.13;98200.77;105843;1257;73716;-41
2024/01/11 04:23:00;;;;;;;9.80;7.10;;;;;;;11.76;46.05;98190.62;105691;1256;61283;-40
2024/01/11 04:25:27;;;;;;;9.10;7.00;;;;;;;11.76;46.03;98182.80;105549;1253;61362;-40
2024/01/11 04:27:54;;;;;;;8.80;7.10;;;;;;;11.76;46.09;98173.13;105557;1252;73551;-40
2024/01/11 04:30:20;;;;;;;11.70;7.60;;;;;;;11.76;45.99;98172.59;105682;1257;65951;-39
2024/01/11 04:32:47;;;;;;;9.10;7.00;;;;;;;11.76;46.10;98172.49;105598;1257;72618;-42
2024/01/11 04:35:13;;;;;;;9.70;6.80;;;;;;;11.76;46.06;98163.52;105627;1256;61361;-39
2024/01/11 04:37:40;;;;;;;9.50;7.00;;;;;;;11.76;46.09;98163.69;105625;1257;61337;-41
2024/01/11 04:40:07;;;;;;;8.40;6.60;;;;;;;11.76;46.10;98162.17;105743;1254;74607;-41
2024/01/11 04:42:34;;;;;;;9.40;7.20;;;;;;;11.75;46.19;98152.33;105875;1255;66164;-40
2024/01/11 04:45:01;;;;;;;8.70;7.10;;;;;;;11.75;46.10;98149.16;105746;1254;72640;-41
2024/01/11 04:47:28;;;;;;;8.60;7.00;;;;;;;11.76;46.06;98144.42;105696;1256;61148;-40
2024/01/11 04:49:54;;;;;;;8.30;7.20;;;;;;;11.75;46.17;98150.13;105527;1254;61247;-40
2024/01/11 04:52:21;;;;;;;8.30;6.80;;;;;;;11.75;46.10;98158.51;105481;1257;74549;-41
2024/01/11 04:54:48;;;;;;;8.90;7.60;;;;;;;11.75;46.09;98163.17;105662;1266;65580;-41
2024/01/11 04:57:14;;;;;;;7.90;7.00;;;;;;;11.75;46.02;98161.94;105519;1253;72278;-40
2024/01/11 04:59:41;;;;;;;9.80;7.70;;;;;;;11.74;46.04;98154.32;105491;1257;61254;-40
2024/01/11 05:02:08;;;;;;;8.90;7.30;;;;;;;11.75;46.13;98152.33;105708;1252;61270;-41
2024/01/11 05:04:35;;;;;;;8.00;6.70;;;;;;;11.75;46.08;98147.98;105620;1255;74472;-42
2024/01/11 05:07:02;;;;;;;8.90;7.60;;;;;;;11.74;46.14;98148.26;105962;1257;65996;-40
2024/01/11 05:09:29;;;;;;;10.60;7.00;;;;;;;11.74;46.10;98150.30;105864;1256;72595;-40
2024/01/11 05:11:55;;;;;;;8.90;7.60;;;;;;;11.74;46.11;98149.50;105859;1266;61255;-39
2024/01/11 05:14:22;;;;;;;10.10;7.00;;;;;;;11.74;46.12;98143.65;105896;1254;61362;-41
2024/01/11 05:16:48;;;;;;;10.90;7.50;;;;;;;11.74;46.06;98142.41;105836;1259;74662;-42
2024/01/11 05:19:15;;;;;;;8.20;6.90;;;;;;;11.73;46.10;98144.14;105515;1254;61163;-41
2024/01/11 05:21:41;;;;;;;10.90;7.60;;;;;;;11.74;46.14;98139.57;106026;1254;72423;-40
2024/01/11 05:24:08;;;;;;;9.20;7.30;;;;;;;11.74;46.00;98123.10;105634;1258;61245;-42
2024/01/11 05:26:37;;;;;;;10.00;7.30;;;;;;;11.74;46.04;98108.66;106066;1254;61152;-40
2024/01/11 05:29:04;;;;;;;9.70;7.10;;;;;;;11.74;46.12;98098.25;105499;1256;74462;-39
2024/01/11 05:31:31;;;;;;;9.80;7.20;;;;;;;11.74;46.04;98091.81;105591;1258;66139;-42
2024/01/11 05:33:58;;;;;;;10.20;7.60;;;;;;;11.74;46.06;98088.05;105848;1254;72309;-41
2024/01/11 05:36:25;;;;;;;9.20;7.10;;;;;;;11.74;46.03;98084.35;105891;1256;61342;-40
2024/01/11 05:38:52;;;;;;;9.30;7.40;;;;;;;11.74;46.13;98080.00;105883;1254;61201;-40
2024/01/11 05:41:18;;;;;;;8.30;6.90;;;;;;;11.74;46.00;98079.14;105795;1254;74295;-40
2024/01/11 05:43:45;;;;;;;8.60;7.00;;;;;;;11.74;45.95;98081.92;105576;1257;65765;-40
2024/01/11 05:46:12;;;;;;;8.20;7.10;;;;;;;11.74;46.03;98076.52;105531;1257;73062;-40
2024/01/11 05:48:38;;;;;;;9.80;7.20;;;;;;;11.74;46.01;98082.75;105641;1257;61322;-40
2024/01/11 05:51:05;;;;;;;8.20;7.10;;;;;;;11.73;46.09;98089.77;105671;1254;61353;-41
2024/01/11 05:53:35;;;;;;;8.30;7.00;;;;;;;11.73;46.18;98089.77;105576;1254;74555;-40
2024/01/11 05:56:03;;;;;;;9.70;7.10;;;;;;;11.73;46.07;98097.83;105594;1258;66371;-40
2024/01/11 05:58:30;;;;;;;8.60;7.10;;;;;;;11.74;46.08;98096.15;105708;1257;72570;-41
2024/01/11 06:00:56;;;;;;;8.10;6.80;;;;;;;11.73;46.04;98096.74;105726;1257;61174;-41
2024/01/11 06:03:23;;;;;;;9.40;7.30;;;;;;;11.73;46.03;98091.66;105630;1253;61305;-41
2024/01/11 06:05:50;;;;;;;8.50;6.90;;;;;;;11.73;46.18;98085.49;105579;1257;74739;-41
2024/01/11 06:08:17;;;;;;;10.20;7.40;;;;;;;11.73;46.10;98070.20;105571;1257;66506;-40
2024/01/11 06:10:44;;;;;;;9.90;7.20;;;;;;;11.73;45.99;98067.45;105564;1254;72579;-41
2024/01/11 06:13:10;;;;;;;9.30;7.10;;;;;;;11.73;46.07;98076.11;105570;1254;61234;-40
2024/01/11 06:15:37;;;;;;;9.60;7.60;;;;;;;11.73;46.05;98066.45;105586;1257;61216;-40
2024/01/11 06:18:04;;;;;;;10.30;7.50;;;;;;;11.73;46.03;98072.17;105609;1264;74513;-40
2024/01/11 06:20:31;;;;;;;9.50;7.30;;;;;;;11.73;46.12;98076.48;105769;1256;65666;-40
2024/01/11 06:22:58;;;;;;;8.90;7.20;;;;;;;11.73;46.07;98081.85;105694;1254;72339;-40
2024/01/11 06:25:24;;;;;;;9.60;7.60;;;;;;;11.73;46.09;98083.17;105613;1257;61191;-39
2024/01/11 06:27:51;;;;;;;8.50;6.90;;;;;;;11.73;46.08;98078.34;105513;1257;61289;-41
2024/01/11 06:30:18;;;;;;;9.60;7.50;;;;;;;11.73;46.20;98085.38;105544;1258;74355;-41
2024/01/11 06:32:44;;;;;;;8.90;7.20;;;;;;;11.73;46.12;98083.17;105590;1257;65075;-41
2024/01/11 06:35:11;;;;;;;10.70;7.60;;;;;;;11.73;46.02;98090.00;105694;1254;72578;-40
2024/01/11 06:37:38;;;;;;;7.60;6.70;;;;;;;11.73;46.16;98084.77;105567;1257;61914;-40
2024/01/11 06:40:08;;;;;;;9.30;7.30;;;;;;;11.73;46.08;98088.61;105664;1254;61335;-40
2024/01/11 06:42:34;;;;;;;9.00;7.00;;;;;;;11.73;46.17;98089.36;105825;1256;74568;-40
2024/01/11 06:45:01;;;;;;;9.30;7.20;;;;;;;11.73;46.18;98085.60;105671;1256;66034;-40
2024/01/11 06:47:28;;;;;;;12.00;6.90;;;;;;;11.73;46.05;98078.79;105646;1254;72709;-40
2024/01/11 06:49:55;;;;;;;8.30;6.90;;;;;;;11.73;46.18;98080.33;105746;1256;61292;-40
2024/01/11 06:52:21;;;;;;;10.70;7.50;;;;;;;11.73;46.03;98074.21;105533;1254;61233;-40
2024/01/11 06:54:48;;;;;;;9.60;6.90;;;;;;;11.73;46.08;98073.89;105719;1253;74629;-41
2024/01/11 06:57:14;;;;;;;8.30;7.10;;;;;;;11.73;46.07;98074.59;105729;1257;66092;-40
2024/01/11 06:59:41;;;;;;;9.00;7.40;;;;;;;11.74;46.06;98075.87;105632;1254;72584;-40
2024/01/11 07:02:08;;;;;;;9.90;7.20;;;;;;;11.74;46.19;98075.55;105798;1257;61236;-40
2024/01/11 07:04:35;;;;;;;10.10;7.40;;;;;;;11.74;46.01;98074.27;105770;1253;61328;-40
2024/01/11 07:07:04;;;;;;;9.30;7.30;;;;;;;11.74;46.07;98073.40;105860;1254;75670;-40
2024/01/11 07:09:31;;;;;;;10.30;7.00;;;;;;;11.74;46.14;98073.40;105578;1254;66293;-42
2024/01/11 07:11:58;;;;;;;9.00;6.70;;;;;;;11.74;46.01;98070.45;105516;1252;72199;-40
2024/01/11 07:14:24;;;;;;;9.20;7.10;;;;;;;11.74;46.10;98069.91;105620;1257;61238;-41
2024/01/11 07:16:51;;;;;;;9.00;6.70;;;;;;;11.74;46.14;98065.45;106031;1254;61204;-41
2024/01/11 07:19:17;;;;;;;9.40;7.50;;;;;;;11.75;46.10;98058.95;105736;1253;76240;-40
2024/01/11 07:21:44;;;;;;;10.10;7.30;;;;;;;11.75;46.09;98053.59;105984;1255;68085;-41
2024/01/11 07:24:11;;;;;;;9.90;6.60;;;;;;;11.74;46.10;98055.73;105570;1254;72561;-40
2024/01/11 07:26:38;;;;;;;7.80;6.70;;;;;;;11.74;46.19;98053.11;106134;1256;61280;-40
2024/01/11 07:29:05;;;;;;;10.60;7.30;;;;;;;11.75;46.06;98052.45;105700;1254;61336;-40
2024/01/11 07:31:32;;;;;;;9.40;6.90;;;;;;;11.74;46.00;98055.05;105739;1257;74590;-39
2024/01/11 07:33:59;;;;;;;9.20;7.60;;;;;;;11.75;45.98;98058.68;105829;1255;66311;-38
2024/01/11 07:36:26;;;;;;;9.30;7.10;;;;;;;11.75;46.03;98054.39;105831;1257;72391;-39
2024/01/11 07:38:53;;;;;;;8.90;7.20;;;;;;;11.75;46.01;98054.13;105645;1257;61305;-42
2024/01/11 07:41:22;;;;;;;10.30;6.90;;;;;;;11.75;46.25;98052.56;105803;1251;61313;-40
2024/01/11 07:43:49;;;;;;;9.20;7.70;;;;;;;11.75;46.25;98048.42;105589;1256;74691;-41
2024/01/11 07:46:21;;;;;;;9.80;7.40;;;;;;;11.76;46.08;98049.59;105751;1256;65030;-41
2024/01/11 07:49:04;;;;;;;9.50;7.20;;;;;;;11.76;46.06;98041.10;105604;1254;72636;-41
2024/01/11 07:51:33;;;;;;;10.80;7.40;;;;;;;11.76;46.02;98032.20;105793;1251;61341;-41
2024/01/11 07:54:00;;;;;;;8.60;7.20;;;;;;;11.76;46.07;98032.52;105694;1251;61336;-41
2024/01/11 07:56:26;;;;;;;11.20;7.50;;;;;;;11.77;46.04;98017.30;105670;1251;74837;-40
2024/01/11 07:58:53;;;;;;;9.80;7.10;;;;;;;11.77;46.13;98013.02;105622;1257;66274;-41
2024/01/11 08:01:20;;;;;;;9.40;7.40;;;;;;;11.78;46.05;98014.52;105463;1257;72562;-41
2024/01/11 08:03:47;;;;;;;8.80;7.20;;;;;;;11.78;46.05;98015.52;105753;1251;61279;-41
2024/01/11 08:06:14;;;;;;;9.30;7.00;;;;;;;11.78;45.87;98003.65;105566;1254;61288;-41
2024/01/11 08:08:41;;;;;;;9.70;7.40;;;;;;;11.78;46.01;97996.64;105516;1254;75703;-41
2024/01/11 08:11:13;;;;;;;8.80;7.50;;;;;;;11.77;46.11;97989.56;105798;1254;66125;-43
2024/01/11 08:13:39;;;;;;;9.10;7.60;;;;;;;11.77;46.12;97986.58;105590;1253;73739;-41
2024/01/11 08:16:09;;;;;;;8.70;7.50;;;;;;;11.77;45.94;97982.50;105553;1256;61178;-40
2024/01/11 08:18:36;;;;;;;10.00;8.60;;;;;;;11.76;45.88;97977.94;105856;1254;61311;-41
2024/01/11 08:21:06;;;;;;;12.00;8.10;;;;;;;11.76;45.95;97967.90;105898;1253;75703;-41
2024/01/11 08:23:33;;;;;;;10.00;7.40;;;;;;;11.76;45.92;97955.56;105759;1256;65076;-41
2024/01/11 08:25:59;;;;;;;12.90;8.40;;;;;;;11.76;45.91;97956.53;105626;1257;71585;-41
2024/01/11 08:28:35;;;;;;;11.30;9.00;;;;;;;11.76;45.81;97951.77;105755;1253;61177;-43
2024/01/11 08:31:04;;;;;;;10.30;8.40;;;;;;;11.75;45.87;97954.13;105495;1260;61756;-41
2024/01/11 08:33:31;;;;;;;10.80;8.20;;;;;;;11.75;45.83;97957.42;105668;1253;74463;-41
2024/01/11 08:35:58;;;;;;;11.10;8.20;;;;;;;11.74;45.89;97967.04;105762;1256;64592;-41
2024/01/11 08:38:25;;;;;;;10.80;8.20;;;;;;;11.74;45.85;97991.02;105654;1256;73257;-43
2024/01/11 08:40:52;;;;;;;13.10;9.30;;;;;;;11.75;45.72;98007.29;105664;1256;61360;-41
2024/01/11 08:43:18;;;;;;;11.70;8.80;;;;;;;11.74;45.80;98022.31;105748;1254;61253;-41
2024/01/11 08:45:46;;;;;;;10.90;8.50;;;;;;;11.74;45.85;98023.11;105660;1254;74457;-42
2024/01/11 08:48:13;;;;;;;10.60;8.60;;;;;;;11.74;45.67;98031.27;105652;1254;66366;-41
2024/01/11 08:50:41;;;;;;;11.30;9.20;;;;;;;11.74;45.61;98033.79;105642;1251;72414;-40
2024/01/11 08:53:07;;;;;;;11.60;8.90;;;;;;;11.74;45.63;98031.33;105817;1256;61520;-41
2024/01/11 08:55:34;;;;;;;11.20;9.20;;;;;;;11.75;45.68;98031.23;105633;1253;61930;-41
2024/01/11 08:58:04;;;;;;;10.50;8.50;;;;;;;11.75;45.74;98023.86;106544;1251;74533;-41
2024/01/11 09:00:30;;;;;;;13.40;8.80;;;;;;;11.75;45.73;98032.17;105721;1256;67152;-41
2024/01/11 09:02:57;;;;;;;11.60;8.90;;;;;;;11.75;45.59;98024.27;105807;1251;73123;-41
2024/01/11 09:05:26;;;;;;;10.70;8.80;;;;;;;11.76;45.72;98023.35;105698;1256;61366;-41
2024/01/11 09:07:59;;;;;;;13.60;9.30;;;;;;;11.75;45.64;98012.47;105615;1257;61341;-42
2024/01/11 09:11:00;;;;;;;11.30;8.90;;;;;;;11.75;45.66;98009.57;105465;1253;72341;-42
2024/01/11 09:13:31;;;;;;;11.10;9.10;;;;;;;11.75;45.76;98004.48;105445;1253;69034;-40
2024/01/11 09:16:30;;;;;;;11.50;9.30;;;;;;;11.76;45.71;98004.90;105412;1254;71849;-41
2024/01/11 09:18:57;;;;;;;12.10;9.10;;;;;;;11.76;45.70;98003.66;105530;1258;61283;-40
2024/01/11 09:21:28;;;;;;;13.80;8.90;;;;;;;11.77;45.64;98009.16;105772;1252;61334;-40
2024/01/11 09:24:05;;;;;;;14.00;9.60;;;;;;;11.76;45.63;98001.71;105786;1254;75388;-38
2024/01/11 09:26:32;;;;;;;12.20;9.50;;;;;;;11.77;45.61;98001.37;105750;1254;67590;-41
2024/01/11 09:29:00;;;;;;;12.50;9.40;;;;;;;11.76;45.60;97998.81;105759;1254;73523;-39
2024/01/11 09:31:29;;;;;;;13.60;9.60;;;;;;;11.77;45.60;97993.64;105499;1253;61421;-41
2024/01/11 09:33:57;;;;;;;12.90;9.60;;;;;;;11.77;45.51;97992.73;105534;1257;61403;-40
2024/01/11 09:36:24;;;;;;;13.80;9.90;;;;;;;11.78;45.69;97998.35;105482;1254;74499;-41
2024/01/11 09:38:51;;;;;;;10.90;9.30;;;;;;;11.79;45.50;97998.23;105725;1254;66900;-42
2024/01/11 09:41:17;;;;;;;13.10;9.50;;;;;;;11.79;45.60;97993.18;105574;1254;73328;-41
2024/01/11 09:43:44;;;;;;;12.60;9.50;;;;;;;11.79;45.53;97994.04;105504;1259;61376;-41
2024/01/11 09:46:11;;;;;;;11.00;9.30;;;;;;;11.79;45.50;97990.83;105575;1253;61387;-41
2024/01/11 09:48:38;;;;;;;11.20;9.30;;;;;;;11.79;45.66;97975.48;105607;1253;75981;-42
2024/01/11 09:51:10;;;;;;;13.30;9.90;;;;;;;11.79;45.59;97973.42;105667;1256;66554;-43
2024/01/11 09:53:38;;;;;;;15.20;9.90;;;;;;;11.79;45.65;97965.38;105725;1253;72373;-41
2024/01/11 09:56:09;;;;;;;14.20;9.60;;;;;;;11.79;45.51;97968.71;105533;1257;61207;-41
2024/01/11 09:58:36;;;;;;;12.10;9.50;;;;;;;11.79;45.52;97973.70;105597;1253;61099;-40
2024/01/11 10:01:03;;;;;;;13.00;9.70;;;;;;;11.79;45.56;97971.71;107065;1253;75506;-40
2024/01/11 10:03:30;;;;;;;14.20;9.80;;;;;;;11.79;45.61;97966.14;105503;1257;67053;-40
2024/01/11 10:05:58;;;;;;;12.80;10.10;;;;;;;11.79;45.52;97961.36;105579;1254;72945;-40
2024/01/11 10:08:25;;;;;;;10.90;9.20;;;;;;;11.79;45.50;97955.77;105811;1253;61343;-40
2024/01/11 10:10:52;;;;;;;11.50;9.70;;;;;;;11.79;45.55;97949.82;105534;1253;61381;-41
2024/01/11 10:13:19;;;;;;;13.80;10.10;;;;;;;11.79;45.58;97951.27;105742;1254;74864;-41
2024/01/11 10:15:46;;;;;;;15.80;10.20;;;;;;;11.79;45.45;97947.98;105276;1260;65881;-40
2024/01/11 10:18:12;;;;;;;14.90;9.70;;;;;;;11.80;45.52;97941.96;105818;1253;72688;-41
2024/01/11 10:20:40;;;;;;;14.10;10.40;;;;;;;11.80;45.56;97940.12;105640;1256;61251;-41
2024/01/11 10:23:07;;;;;;;14.60;10.40;;;;;;;11.80;45.55;97938.84;105734;1253;61336;-41
2024/01/11 10:25:33;;;;;;;14.50;10.00;;;;;;;11.81;45.53;97934.80;105705;1256;74599;-41
2024/01/11 10:28:00;;;;;;;14.00;10.40;;;;;;;11.80;45.56;97932.56;105795;1256;66910;-41
2024/01/11 10:30:28;;;;;;;13.60;10.20;;;;;;;11.81;45.40;97927.98;105717;1253;72624;-41
2024/01/11 10:32:55;;;;;;;12.60;10.10;;;;;;;11.81;45.42;97914.95;105580;1256;61234;-42
2024/01/11 10:35:22;;;;;;;14.40;10.50;;;;;;;11.81;45.42;97912.53;105248;1254;61408;-41
2024/01/11 10:37:52;;;;;;;15.20;10.30;;;;;;;11.82;45.50;97911.42;105478;1253;75535;-42
2024/01/11 10:40:24;;;;;;;13.10;10.00;;;;;;;11.82;45.48;97914.13;105677;1256;66271;-41
2024/01/11 10:42:52;;;;;;;13.00;10.30;;;;;;;11.83;45.40;97911.70;105679;1253;73322;-42
2024/01/11 10:45:19;;;;;;;13.20;9.80;;;;;;;11.83;45.48;97907.33;105668;1256;61248;-41
2024/01/11 10:48:01;;;;;;;13.40;9.70;;;;;;;11.84;45.51;97907.00;105692;1252;61276;-42
2024/01/11 10:50:39;;;;;;;11.90;10.10;;;;;;;11.84;45.51;97901.25;105569;1256;74520;-40
2024/01/11 10:53:28;;;;;;;13.00;9.80;;;;;;;11.84;45.41;97890.62;105723;1256;66424;-40
2024/01/11 10:55:57;;;;;;;14.30;10.20;;;;;;;11.85;45.39;97888.12;105718;1254;72552;-40
2024/01/11 10:58:23;;;;;;;13.10;9.70;;;;;;;11.86;45.49;97888.22;105716;1256;61212;-40
2024/01/11 11:00:51;;;;;;;13.30;10.00;;;;;;;11.87;45.58;97886.45;105576;1253;61292;-40
2024/01/11 11:03:18;;;;;;;14.00;10.20;;;;;;;11.87;45.53;97886.79;105931;1256;74364;-40
2024/01/11 11:05:46;;;;;;;13.50;10.00;;;;;;;11.88;45.43;97880.55;105631;1256;65999;-39
2024/01/11 11:08:13;;;;;;;15.70;9.60;;;;;;;11.89;45.38;97873.40;105436;1253;73631;-40
2024/01/11 11:10:39;;;;;;;12.90;10.20;;;;;;;11.90;45.50;97870.59;105467;1260;61291;-40
2024/01/11 11:13:06;;;;;;;12.50;9.90;;;;;;;11.91;45.41;97868.58;105854;1252;61349;-40
2024/01/11 11:15:33;;;;;;;15.40;10.20;;;;;;;11.91;45.41;97865.08;105357;1253;75553;-41
2024/01/11 11:18:02;;;;;;;13.40;10.50;;;;;;;11.92;45.39;97861.73;105668;1256;66192;-40
2024/01/11 11:20:29;;;;;;;12.70;10.40;;;;;;;11.93;45.39;97860.10;105884;1252;73591;-40
2024/01/11 11:23:06;;;;;;;12.20;9.80;;;;;;;11.94;45.54;97857.60;105573;1258;61555;-40